sensor_id;sensor_type;location;lat;lon;timestamp;temperature;humidity
12426;DHT22;6277;49.824;9.562;2022-08-11T00:01:49;21.80;33.90
12426;DHT22;6277;49.824;9.562;2022-08-11T00:04:16;21.90;33.90
12426;DHT22;6277;49.824;9.562;2022-08-11T00:06:43;21.80;33.80
12426;DHT22;6277;49.824;9.562;2022-08-11T00:09:16;21.70;33.80
12426;DHT22;6277;49.824;9.562;2022-08-11T00:14:26;21.70;34.10
12426;DHT22;6277;49.824;9.562;2022-08-11T00:19:21;21.60;34.20
12426;DHT22;6277;49.824;9.562;2022-08-11T00:21:47;21.60;34.30
12426;DHT22;6277;49.824;9.562;2022-08-11T00:24:13;21.60;34.30
12426;DHT22;6277;49.824;9.562;2022-08-11T00:26:47;21.50;34.30
12426;DHT22;6277;49.824;9.562;2022-08-11T00:29:13;21.50;34.80
12426;DHT22;6277;49.824;9.562;2022-08-11T00:31:50;21.50;34.40
12426;DHT22;6277;49.824;9.562;2022-08-11T00:34:27;21.50;34.80
12426;DHT22;6277;49.824;9.562;2022-08-11T00:37:00;21.50;34.80
12426;DHT22;6277;49.824;9.562;2022-08-11T00:39:27;21.40;35.00
12426;DHT22;6277;49.824;9.562;2022-08-11T00:55:52;21.30;35.50
12426;DHT22;6277;49.824;9.562;2022-08-11T01:02:16;21.30;35.60
12426;DHT22;6277;49.824;9.562;2022-08-11T01:07:20;21.20;35.70
12426;DHT22;6277;49.824;9.562;2022-08-11T01:16:12;21.10;35.90
12426;DHT22;6277;49.824;9.562;2022-08-11T01:33:48;20.90;36.60
12426;DHT22;6277;49.824;9.562;2022-08-11T01:47:47;20.90;36.80
12426;DHT22;6277;49.824;9.562;2022-08-11T01:53:02;20.80;36.70
12426;DHT22;6277;49.824;9.562;2022-08-11T01:58:51;20.80;37.20
12426;DHT22;6277;49.824;9.562;2022-08-11T02:01:40;20.80;37.40
12426;DHT22;6277;49.824;9.562;2022-08-11T02:04:37;20.80;37.50
12426;DHT22;6277;49.824;9.562;2022-08-11T02:07:27;20.70;37.50
12426;DHT22;6277;49.824;9.562;2022-08-11T02:10:17;20.70;37.50
12426;DHT22;6277;49.824;9.562;2022-08-11T02:13:28;20.70;37.50
12426;DHT22;6277;49.824;9.562;2022-08-11T02:18:55;20.70;37.60
12426;DHT22;6277;49.824;9.562;2022-08-11T02:21:51;20.60;37.60
12426;DHT22;6277;49.824;9.562;2022-08-11T02:24:45;20.60;37.70
12426;DHT22;6277;49.824;9.562;2022-08-11T02:27:19;20.60;37.80
12426;DHT22;6277;49.824;9.562;2022-08-11T02:30:01;20.50;37.80
12426;DHT22;6277;49.824;9.562;2022-08-11T02:32:38;20.50;38.20
12426;DHT22;6277;49.824;9.562;2022-08-11T02:35:40;20.50;38.10
12426;DHT22;6277;49.824;9.562;2022-08-11T02:41:20;20.40;38.40
12426;DHT22;6277;49.824;9.562;2022-08-11T02:46:51;20.30;38.20
12426;DHT22;6277;49.824;9.562;2022-08-11T02:49:35;20.30;38.60
12426;DHT22;6277;49.824;9.562;2022-08-11T03:00:24;20.20;38.80
12426;DHT22;6277;49.824;9.562;2022-08-11T03:03:14;20.10;38.70
12426;DHT22;6277;49.824;9.562;2022-08-11T03:06:13;20.10;38.90
12426;DHT22;6277;49.824;9.562;2022-08-11T03:09:18;20.00;39.10
12426;DHT22;6277;49.824;9.562;2022-08-11T03:12:05;20.00;39.80
12426;DHT22;6277;49.824;9.562;2022-08-11T03:15:06;20.00;39.40
12426;DHT22;6277;49.824;9.562;2022-08-11T03:23:10;19.90;39.20
12426;DHT22;6277;49.824;9.562;2022-08-11T03:26:04;19.90;39.70
12426;DHT22;6277;49.824;9.562;2022-08-11T03:29:10;19.90;39.90
12426;DHT22;6277;49.824;9.562;2022-08-11T03:31:49;19.80;40.00
12426;DHT22;6277;49.824;9.562;2022-08-11T03:34:22;19.80;40.00
12426;DHT22;6277;49.824;9.562;2022-08-11T03:51:28;19.60;40.30
12426;DHT22;6277;49.824;9.562;2022-08-11T03:57:01;19.40;40.60
12426;DHT22;6277;49.824;9.562;2022-08-11T04:05:38;19.30;40.60
12426;DHT22;6277;49.824;9.562;2022-08-11T04:08:29;19.20;41.10
12426;DHT22;6277;49.824;9.562;2022-08-11T04:11:16;19.10;41.10
12426;DHT22;6277;49.824;9.562;2022-08-11T04:17:59;19.00;41.10
12426;DHT22;6277;49.824;9.562;2022-08-11T04:54:59;18.60;42.10
12426;DHT22;6277;49.824;9.562;2022-08-11T05:00:55;18.60;42.90
12426;DHT22;6277;49.824;9.562;2022-08-11T05:10:10;18.80;43.20
12426;DHT22;6277;49.824;9.562;2022-08-11T05:15:17;18.80;43.60
12426;DHT22;6277;49.824;9.562;2022-08-11T05:18:14;18.90;43.40
12426;DHT22;6277;49.824;9.562;2022-08-11T05:21:06;18.90;43.90
12426;DHT22;6277;49.824;9.562;2022-08-11T05:24:06;19.00;44.10
12426;DHT22;6277;49.824;9.562;2022-08-11T05:26:52;19.00;43.80
12426;DHT22;6277;49.824;9.562;2022-08-11T05:29:46;19.00;43.40
12426;DHT22;6277;49.824;9.562;2022-08-11T05:32:37;19.10;44.00
12426;DHT22;6277;49.824;9.562;2022-08-11T05:35:36;19.10;44.10
12426;DHT22;6277;49.824;9.562;2022-08-11T05:38:03;19.20;44.00
12426;DHT22;6277;49.824;9.562;2022-08-11T05:40:53;19.20;43.80
12426;DHT22;6277;49.824;9.562;2022-08-11T05:43:41;19.30;43.90
12426;DHT22;6277;49.824;9.562;2022-08-11T05:46:27;19.30;44.00
12426;DHT22;6277;49.824;9.562;2022-08-11T05:49:14;19.40;44.10
12426;DHT22;6277;49.824;9.562;2022-08-11T05:51:59;19.50;44.20
12426;DHT22;6277;49.824;9.562;2022-08-11T05:54:46;19.50;43.90
12426;DHT22;6277;49.824;9.562;2022-08-11T05:57:32;19.60;44.00
12426;DHT22;6277;49.824;9.562;2022-08-11T06:00:01;19.70;44.00
12426;DHT22;6277;49.824;9.562;2022-08-11T06:02:28;19.80;44.10
12426;DHT22;6277;49.824;9.562;2022-08-11T06:04:59;19.90;44.00
12426;DHT22;6277;49.824;9.562;2022-08-11T06:07:31;20.00;44.30
12426;DHT22;6277;49.824;9.562;2022-08-11T06:09:58;20.10;44.30
12426;DHT22;6277;49.824;9.562;2022-08-11T06:12:29;20.20;44.10
12426;DHT22;6277;49.824;9.562;2022-08-11T06:15:10;20.40;44.10
12426;DHT22;6277;49.824;9.562;2022-08-11T06:17:45;20.60;44.30
12426;DHT22;6277;49.824;9.562;2022-08-11T06:20:12;20.60;44.10
12426;DHT22;6277;49.824;9.562;2022-08-11T06:22:43;20.70;43.80
12426;DHT22;6277;49.824;9.562;2022-08-11T06:25:10;20.80;43.80
12426;DHT22;6277;49.824;9.562;2022-08-11T06:27:37;20.90;43.70
12426;DHT22;6277;49.824;9.562;2022-08-11T06:30:05;21.00;43.70
12426;DHT22;6277;49.824;9.562;2022-08-11T06:32:40;21.20;43.70
12426;DHT22;6277;49.824;9.562;2022-08-11T06:35:16;21.30;43.60
12426;DHT22;6277;49.824;9.562;2022-08-11T06:37:55;21.40;43.60
12426;DHT22;6277;49.824;9.562;2022-08-11T06:40:36;21.50;43.50
12426;DHT22;6277;49.824;9.562;2022-08-11T06:43:20;21.60;43.50
12426;DHT22;6277;49.824;9.562;2022-08-11T06:45:49;21.70;43.40
12426;DHT22;6277;49.824;9.562;2022-08-11T06:48:18;21.80;43.30
12426;DHT22;6277;49.824;9.562;2022-08-11T06:51:07;21.80;43.20
12426;DHT22;6277;49.824;9.562;2022-08-11T06:56:14;22.00;43.10
12426;DHT22;6277;49.824;9.562;2022-08-11T06:59:00;22.10;43.00
12426;DHT22;6277;49.824;9.562;2022-08-11T07:04:43;22.30;43.00
12426;DHT22;6277;49.824;9.562;2022-08-11T07:13:38;22.60;42.90
12426;DHT22;6277;49.824;9.562;2022-08-11T07:16:27;22.70;42.70
12426;DHT22;6277;49.824;9.562;2022-08-11T07:19:02;22.80;42.70
12426;DHT22;6277;49.824;9.562;2022-08-11T07:21:47;22.80;42.70
12426;DHT22;6277;49.824;9.562;2022-08-11T07:24:49;22.90;42.50
12426;DHT22;6277;49.824;9.562;2022-08-11T07:27:45;23.00;42.50
12426;DHT22;6277;49.824;9.562;2022-08-11T07:30:30;23.10;42.50
12426;DHT22;6277;49.824;9.562;2022-08-11T07:32:59;23.20;42.40
12426;DHT22;6277;49.824;9.562;2022-08-11T07:35:45;23.20;42.30
12426;DHT22;6277;49.824;9.562;2022-08-11T07:38:22;23.30;42.30
12426;DHT22;6277;49.824;9.562;2022-08-11T07:40:48;23.40;42.30
12426;DHT22;6277;49.824;9.562;2022-08-11T07:43:15;23.50;42.20
12426;DHT22;6277;49.824;9.562;2022-08-11T07:45:42;23.60;42.10
12426;DHT22;6277;49.824;9.562;2022-08-11T07:48:27;23.70;42.00
12426;DHT22;6277;49.824;9.562;2022-08-11T07:51:17;23.80;42.00
12426;DHT22;6277;49.824;9.562;2022-08-11T07:54:01;23.90;41.90
12426;DHT22;6277;49.824;9.562;2022-08-11T07:56:34;24.00;41.80
12426;DHT22;6277;49.824;9.562;2022-08-11T07:59:01;24.10;41.70
12426;DHT22;6277;49.824;9.562;2022-08-11T08:01:46;24.20;41.60
12426;DHT22;6277;49.824;9.562;2022-08-11T08:04:30;24.20;41.50
12426;DHT22;6277;49.824;9.562;2022-08-11T08:07:20;24.30;41.40
12426;DHT22;6277;49.824;9.562;2022-08-11T08:10:06;24.40;41.20
12426;DHT22;6277;49.824;9.562;2022-08-11T08:12:52;24.60;41.20
12426;DHT22;6277;49.824;9.562;2022-08-11T08:15:37;24.60;41.10
12426;DHT22;6277;49.824;9.562;2022-08-11T08:18:23;24.70;41.00
12426;DHT22;6277;49.824;9.562;2022-08-11T08:20:50;24.80;41.00
12426;DHT22;6277;49.824;9.562;2022-08-11T08:23:17;24.90;40.80
12426;DHT22;6277;49.824;9.562;2022-08-11T08:25:57;24.90;40.70
12426;DHT22;6277;49.824;9.562;2022-08-11T08:28:26;25.10;40.80
12426;DHT22;6277;49.824;9.562;2022-08-11T08:30:52;25.10;40.60
12426;DHT22;6277;49.824;9.562;2022-08-11T08:33:26;25.20;40.50
12426;DHT22;6277;49.824;9.562;2022-08-11T08:36:02;25.30;40.30
12426;DHT22;6277;49.824;9.562;2022-08-11T08:41:05;25.50;40.40
12426;DHT22;6277;49.824;9.562;2022-08-11T08:43:31;25.60;40.20
12426;DHT22;6277;49.824;9.562;2022-08-11T08:45:58;25.70;40.10
12426;DHT22;6277;49.824;9.562;2022-08-11T08:48:26;25.80;40.10
12426;DHT22;6277;49.824;9.562;2022-08-11T08:51:00;25.90;39.90
12426;DHT22;6277;49.824;9.562;2022-08-11T08:53:51;26.00;39.70
12426;DHT22;6277;49.824;9.562;2022-08-11T08:56:17;26.20;39.40
12426;DHT22;6277;49.824;9.562;2022-08-11T08:58:47;26.20;39.50
12426;DHT22;6277;49.824;9.562;2022-08-11T09:01:15;26.40;39.40
12426;DHT22;6277;49.824;9.562;2022-08-11T09:03:42;26.50;39.20
12426;DHT22;6277;49.824;9.562;2022-08-11T09:06:08;26.60;39.20
12426;DHT22;6277;49.824;9.562;2022-08-11T09:08:35;26.70;39.00
12426;DHT22;6277;49.824;9.562;2022-08-11T09:11:03;26.80;39.40
12426;DHT22;6277;49.824;9.562;2022-08-11T09:13:48;27.00;38.50
12426;DHT22;6277;49.824;9.562;2022-08-11T09:16:15;27.10;38.40
12426;DHT22;6277;49.824;9.562;2022-08-11T09:18:41;27.20;38.30
12426;DHT22;6277;49.824;9.562;2022-08-11T09:21:15;27.20;38.00
12426;DHT22;6277;49.824;9.562;2022-08-11T09:23:41;27.30;37.70
12426;DHT22;6277;49.824;9.562;2022-08-11T09:26:26;27.40;37.70
12426;DHT22;6277;49.824;9.562;2022-08-11T09:29:11;27.50;37.60
12426;DHT22;6277;49.824;9.562;2022-08-11T09:31:38;27.60;37.60
12426;DHT22;6277;49.824;9.562;2022-08-11T09:34:03;27.70;37.30
12426;DHT22;6277;49.824;9.562;2022-08-11T09:36:29;27.80;37.00
12426;DHT22;6277;49.824;9.562;2022-08-11T09:39:14;27.90;36.90
12426;DHT22;6277;49.824;9.562;2022-08-11T09:42:03;28.00;36.70
12426;DHT22;6277;49.824;9.562;2022-08-11T09:44:31;28.10;36.50
12426;DHT22;6277;49.824;9.562;2022-08-11T09:47:22;28.20;36.40
12426;DHT22;6277;49.824;9.562;2022-08-11T09:49:48;28.30;36.10
12426;DHT22;6277;49.824;9.562;2022-08-11T09:52:17;28.40;36.30
12426;DHT22;6277;49.824;9.562;2022-08-11T09:54:46;28.50;35.90
12426;DHT22;6277;49.824;9.562;2022-08-11T09:57:13;28.60;35.70
12426;DHT22;6277;49.824;9.562;2022-08-11T09:59:57;28.70;35.60
12426;DHT22;6277;49.824;9.562;2022-08-11T10:02:27;28.80;35.50
12426;DHT22;6277;49.824;9.562;2022-08-11T10:04:57;28.90;35.00
12426;DHT22;6277;49.824;9.562;2022-08-11T10:07:49;28.90;34.50
12426;DHT22;6277;49.824;9.562;2022-08-11T10:10:18;29.10;34.60
12426;DHT22;6277;49.824;9.562;2022-08-11T10:12:50;29.10;34.90
12426;DHT22;6277;49.824;9.562;2022-08-11T10:15:18;29.20;34.60
12426;DHT22;6277;49.824;9.562;2022-08-11T10:18:10;29.30;34.40
12426;DHT22;6277;49.824;9.562;2022-08-11T10:20:58;29.30;34.10
12426;DHT22;6277;49.824;9.562;2022-08-11T10:23:27;29.50;34.30
12426;DHT22;6277;49.824;9.562;2022-08-11T10:26:13;29.50;33.90
12426;DHT22;6277;49.824;9.562;2022-08-11T10:29:00;29.60;34.00
12426;DHT22;6277;49.824;9.562;2022-08-11T10:31:26;29.60;33.50
12426;DHT22;6277;49.824;9.562;2022-08-11T10:34:10;29.80;33.60
12426;DHT22;6277;49.824;9.562;2022-08-11T10:36:38;29.80;33.30
12426;DHT22;6277;49.824;9.562;2022-08-11T10:39:10;29.80;33.10
12426;DHT22;6277;49.824;9.562;2022-08-11T10:41:39;29.80;33.00
12426;DHT22;6277;49.824;9.562;2022-08-11T10:44:24;29.80;33.00
12426;DHT22;6277;49.824;9.562;2022-08-11T10:46:51;29.90;32.90
12426;DHT22;6277;49.824;9.562;2022-08-11T10:49:36;29.80;32.50
12426;DHT22;6277;49.824;9.562;2022-08-11T10:52:02;29.90;32.60
12426;DHT22;6277;49.824;9.562;2022-08-11T10:54:46;29.80;32.30
12426;DHT22;6277;49.824;9.562;2022-08-11T10:57:31;29.90;32.20
12426;DHT22;6277;49.824;9.562;2022-08-11T11:00:15;29.90;32.20
12426;DHT22;6277;49.824;9.562;2022-08-11T11:02:43;29.90;32.20
12426;DHT22;6277;49.824;9.562;2022-08-11T11:08:07;29.90;31.60
12426;DHT22;6277;49.824;9.562;2022-08-11T11:10:54;29.90;31.30
12426;DHT22;6277;49.824;9.562;2022-08-11T11:13:20;30.00;32.40
12426;DHT22;6277;49.824;9.562;2022-08-11T11:16:07;30.10;31.80
12426;DHT22;6277;49.824;9.562;2022-08-11T11:18:52;30.10;31.80
12426;DHT22;6277;49.824;9.562;2022-08-11T11:21:19;30.20;31.70
12426;DHT22;6277;49.824;9.562;2022-08-11T11:26:54;30.30;30.70
12426;DHT22;6277;49.824;9.562;2022-08-11T11:32:26;30.30;30.70
12426;DHT22;6277;49.824;9.562;2022-08-11T11:37:44;30.50;30.50
12426;DHT22;6277;49.824;9.562;2022-08-11T11:40:12;30.50;30.50
12426;DHT22;6277;49.824;9.562;2022-08-11T11:42:40;30.60;30.50
12426;DHT22;6277;49.824;9.562;2022-08-11T11:45:08;30.60;30.50
12426;DHT22;6277;49.824;9.562;2022-08-11T11:47:36;30.70;30.30
12426;DHT22;6277;49.824;9.562;2022-08-11T11:50:02;30.80;30.20
12426;DHT22;6277;49.824;9.562;2022-08-11T11:52:29;30.80;30.10
12426;DHT22;6277;49.824;9.562;2022-08-11T11:54:56;30.90;30.10
12426;DHT22;6277;49.824;9.562;2022-08-11T11:57:23;30.90;30.00
12426;DHT22;6277;49.824;9.562;2022-08-11T12:00:09;31.00;30.00
12426;DHT22;6277;49.824;9.562;2022-08-11T12:02:56;31.00;29.90
12426;DHT22;6277;49.824;9.562;2022-08-11T12:05:23;31.10;29.80
12426;DHT22;6277;49.824;9.562;2022-08-11T12:07:49;31.10;29.70
12426;DHT22;6277;49.824;9.562;2022-08-11T12:10:34;31.20;29.60
12426;DHT22;6277;49.824;9.562;2022-08-11T12:13:03;31.20;29.40
12426;DHT22;6277;49.824;9.562;2022-08-11T12:15:49;31.30;29.20
12426;DHT22;6277;49.824;9.562;2022-08-11T12:18:16;31.30;29.30
12426;DHT22;6277;49.824;9.562;2022-08-11T12:20:43;31.30;29.20
12426;DHT22;6277;49.824;9.562;2022-08-11T12:23:12;31.40;29.20
12426;DHT22;6277;49.824;9.562;2022-08-11T12:25:57;31.40;29.00
12426;DHT22;6277;49.824;9.562;2022-08-11T12:28:42;31.50;28.90
12426;DHT22;6277;49.824;9.562;2022-08-11T12:31:08;31.60;28.90
12426;DHT22;6277;49.824;9.562;2022-08-11T12:33:36;31.60;28.60
12426;DHT22;6277;49.824;9.562;2022-08-11T12:36:02;31.60;28.40
12426;DHT22;6277;49.824;9.562;2022-08-11T12:38:28;31.70;28.40
12426;DHT22;6277;49.824;9.562;2022-08-11T12:40:55;31.70;28.20
12426;DHT22;6277;49.824;9.562;2022-08-11T12:43:43;31.70;28.10
12426;DHT22;6277;49.824;9.562;2022-08-11T12:46:34;31.70;27.90
12426;DHT22;6277;49.824;9.562;2022-08-11T12:49:12;31.70;27.90
12426;DHT22;6277;49.824;9.562;2022-08-11T12:51:57;31.80;27.90
12426;DHT22;6277;49.824;9.562;2022-08-11T12:54:39;31.80;28.00
12426;DHT22;6277;49.824;9.562;2022-08-11T12:57:11;31.80;27.70
12426;DHT22;6277;49.824;9.562;2022-08-11T12:59:58;31.90;27.80
12426;DHT22;6277;49.824;9.562;2022-08-11T13:02:45;31.90;27.90
12426;DHT22;6277;49.824;9.562;2022-08-11T13:05:30;32.00;27.90
12426;DHT22;6277;49.824;9.562;2022-08-11T13:08:00;32.10;27.70
12426;DHT22;6277;49.824;9.562;2022-08-11T13:10:28;32.20;27.50
12426;DHT22;6277;49.824;9.562;2022-08-11T13:13:14;32.30;27.40
12426;DHT22;6277;49.824;9.562;2022-08-11T13:15:42;32.30;27.50
12426;DHT22;6277;49.824;9.562;2022-08-11T13:18:10;32.40;27.40
12426;DHT22;6277;49.824;9.562;2022-08-11T13:20:39;32.50;27.30
12426;DHT22;6277;49.824;9.562;2022-08-11T13:23:06;32.60;27.30
12426;DHT22;6277;49.824;9.562;2022-08-11T13:25:32;32.70;27.30
12426;DHT22;6277;49.824;9.562;2022-08-11T13:27:59;32.80;27.20
12426;DHT22;6277;49.824;9.562;2022-08-11T13:30:28;33.00;27.00
12426;DHT22;6277;49.824;9.562;2022-08-11T13:33:14;33.10;27.00
12426;DHT22;6277;49.824;9.562;2022-08-11T13:35:44;33.30;27.00
12426;DHT22;6277;49.824;9.562;2022-08-11T13:38:10;33.40;26.80
12426;DHT22;6277;49.824;9.562;2022-08-11T13:40:39;33.50;26.40
12426;DHT22;6277;49.824;9.562;2022-08-11T13:43:05;33.60;26.30
12426;DHT22;6277;49.824;9.562;2022-08-11T13:45:32;33.80;26.40
12426;DHT22;6277;49.824;9.562;2022-08-11T13:47:59;33.90;26.10
12426;DHT22;6277;49.824;9.562;2022-08-11T13:50:26;34.00;26.00
12426;DHT22;6277;49.824;9.562;2022-08-11T13:53:14;34.10;25.90
12426;DHT22;6277;49.824;9.562;2022-08-11T13:55:42;34.10;25.70
12426;DHT22;6277;49.824;9.562;2022-08-11T13:58:11;34.20;25.60
12426;DHT22;6277;49.824;9.562;2022-08-11T14:00:38;34.30;25.20
12426;DHT22;6277;49.824;9.562;2022-08-11T14:03:09;34.40;25.40
12426;DHT22;6277;49.824;9.562;2022-08-11T14:05:48;34.50;25.10
12426;DHT22;6277;49.824;9.562;2022-08-11T14:08:20;34.60;24.90
12426;DHT22;6277;49.824;9.562;2022-08-11T14:10:49;34.80;24.90
12426;DHT22;6277;49.824;9.562;2022-08-11T14:13:38;34.90;24.80
12426;DHT22;6277;49.824;9.562;2022-08-11T14:16:09;35.00;24.60
12426;DHT22;6277;49.824;9.562;2022-08-11T14:18:41;35.10;24.60
12426;DHT22;6277;49.824;9.562;2022-08-11T14:21:11;35.20;24.70
12426;DHT22;6277;49.824;9.562;2022-08-11T14:23:57;35.30;24.70
12426;DHT22;6277;49.824;9.562;2022-08-11T14:26:24;35.50;24.70
12426;DHT22;6277;49.824;9.562;2022-08-11T14:29:09;35.60;24.60
12426;DHT22;6277;49.824;9.562;2022-08-11T14:31:38;35.70;24.10
12426;DHT22;6277;49.824;9.562;2022-08-11T14:34:06;35.90;24.20
12426;DHT22;6277;49.824;9.562;2022-08-11T14:36:37;36.00;24.00
12426;DHT22;6277;49.824;9.562;2022-08-11T14:39:16;36.20;23.90
12426;DHT22;6277;49.824;9.562;2022-08-11T14:41:47;36.30;23.60
12426;DHT22;6277;49.824;9.562;2022-08-11T14:44:35;36.40;23.60
12426;DHT22;6277;49.824;9.562;2022-08-11T14:47:21;36.50;23.50
12426;DHT22;6277;49.824;9.562;2022-08-11T14:49:48;36.60;23.50
12426;DHT22;6277;49.824;9.562;2022-08-11T14:52:16;36.70;23.40
12426;DHT22;6277;49.824;9.562;2022-08-11T14:54:44;36.80;23.30
12426;DHT22;6277;49.824;9.562;2022-08-11T14:57:31;36.90;23.20
12426;DHT22;6277;49.824;9.562;2022-08-11T14:59:59;37.00;23.10
12426;DHT22;6277;49.824;9.562;2022-08-11T15:02:26;37.10;22.90
12426;DHT22;6277;49.824;9.562;2022-08-11T15:05:11;37.20;22.90
12426;DHT22;6277;49.824;9.562;2022-08-11T15:07:37;37.40;22.90
12426;DHT22;6277;49.824;9.562;2022-08-11T15:10:06;37.50;22.90
12426;DHT22;6277;49.824;9.562;2022-08-11T15:12:33;37.60;22.70
12426;DHT22;6277;49.824;9.562;2022-08-11T15:15:04;37.80;22.70
12426;DHT22;6277;49.824;9.562;2022-08-11T15:17:51;38.00;22.50
12426;DHT22;6277;49.824;9.562;2022-08-11T15:20:19;38.10;22.60
12426;DHT22;6277;49.824;9.562;2022-08-11T15:23:04;38.30;22.40
12426;DHT22;6277;49.824;9.562;2022-08-11T15:26:00;38.50;22.40
12426;DHT22;6277;49.824;9.562;2022-08-11T15:28:29;38.70;22.10
12426;DHT22;6277;49.824;9.562;2022-08-11T15:31:15;38.90;22.50
12426;DHT22;6277;49.824;9.562;2022-08-11T15:34:00;39.10;22.40
12426;DHT22;6277;49.824;9.562;2022-08-11T15:36:47;39.30;22.20
12426;DHT22;6277;49.824;9.562;2022-08-11T15:39:46;39.60;22.10
12426;DHT22;6277;49.824;9.562;2022-08-11T15:42:32;39.80;21.70
12426;DHT22;6277;49.824;9.562;2022-08-11T15:45:21;40.10;21.80
12426;DHT22;6277;49.824;9.562;2022-08-11T15:48:09;40.30;21.30
12426;DHT22;6277;49.824;9.562;2022-08-11T15:50:40;40.50;21.30
12426;DHT22;6277;49.824;9.562;2022-08-11T15:53:26;40.80;21.10
12426;DHT22;6277;49.824;9.562;2022-08-11T15:55:54;40.90;20.90
12426;DHT22;6277;49.824;9.562;2022-08-11T15:58:22;41.00;20.90
12426;DHT22;6277;49.824;9.562;2022-08-11T16:01:09;41.20;20.80
12426;DHT22;6277;49.824;9.562;2022-08-11T16:04:00;41.30;20.70
12426;DHT22;6277;49.824;9.562;2022-08-11T16:07:01;41.40;20.40
12426;DHT22;6277;49.824;9.562;2022-08-11T16:09:38;41.40;20.40
12426;DHT22;6277;49.824;9.562;2022-08-11T16:12:07;41.50;20.60
12426;DHT22;6277;49.824;9.562;2022-08-11T16:14:38;41.60;20.30
12426;DHT22;6277;49.824;9.562;2022-08-11T16:17:26;41.70;20.20
12426;DHT22;6277;49.824;9.562;2022-08-11T16:19:54;41.80;20.20
12426;DHT22;6277;49.824;9.562;2022-08-11T16:22:23;41.80;20.20
12426;DHT22;6277;49.824;9.562;2022-08-11T16:24:53;41.90;20.10
12426;DHT22;6277;49.824;9.562;2022-08-11T16:27:19;41.90;20.20
12426;DHT22;6277;49.824;9.562;2022-08-11T16:29:46;42.00;20.00
12426;DHT22;6277;49.824;9.562;2022-08-11T16:32:17;42.10;20.10
12426;DHT22;6277;49.824;9.562;2022-08-11T16:34:59;42.10;20.00
12426;DHT22;6277;49.824;9.562;2022-08-11T16:37:44;42.40;20.00
12426;DHT22;6277;49.824;9.562;2022-08-11T16:40:30;42.40;19.90
12426;DHT22;6277;49.824;9.562;2022-08-11T16:42:57;42.50;19.70
12426;DHT22;6277;49.824;9.562;2022-08-11T16:45:42;42.40;19.60
12426;DHT22;6277;49.824;9.562;2022-08-11T16:48:31;42.40;19.50
12426;DHT22;6277;49.824;9.562;2022-08-11T16:50:58;42.20;19.30
12426;DHT22;6277;49.824;9.562;2022-08-11T16:53:27;42.20;19.40
12426;DHT22;6277;49.824;9.562;2022-08-11T16:55:55;42.10;19.30
12426;DHT22;6277;49.824;9.562;2022-08-11T16:58:23;42.00;19.30
12426;DHT22;6277;49.824;9.562;2022-08-11T17:01:08;42.00;19.50
12426;DHT22;6277;49.824;9.562;2022-08-11T17:03:42;41.90;19.40
12426;DHT22;6277;49.824;9.562;2022-08-11T17:06:28;42.10;19.50
12426;DHT22;6277;49.824;9.562;2022-08-11T17:09:16;42.20;19.60
12426;DHT22;6277;49.824;9.562;2022-08-11T17:12:02;42.40;19.40
12426;DHT22;6277;49.824;9.562;2022-08-11T17:14:50;42.50;19.40
12426;DHT22;6277;49.824;9.562;2022-08-11T17:17:25;42.60;19.40
12426;DHT22;6277;49.824;9.562;2022-08-11T17:19:54;42.70;19.20
12426;DHT22;6277;49.824;9.562;2022-08-11T17:22:22;42.70;19.10
12426;DHT22;6277;49.824;9.562;2022-08-11T17:25:07;42.60;19.10
12426;DHT22;6277;49.824;9.562;2022-08-11T17:27:34;42.50;19.00
12426;DHT22;6277;49.824;9.562;2022-08-11T17:30:04;42.40;19.00
12426;DHT22;6277;49.824;9.562;2022-08-11T17:32:37;42.20;18.90
12426;DHT22;6277;49.824;9.562;2022-08-11T17:35:24;42.00;18.80
12426;DHT22;6277;49.824;9.562;2022-08-11T17:38:07;41.60;18.80
12426;DHT22;6277;49.824;9.562;2022-08-11T17:40:38;41.20;18.70
12426;DHT22;6277;49.824;9.562;2022-08-11T17:43:08;40.70;18.70
12426;DHT22;6277;49.824;9.562;2022-08-11T17:45:54;40.30;18.80
12426;DHT22;6277;49.824;9.562;2022-08-11T17:48:32;39.70;18.90
12426;DHT22;6277;49.824;9.562;2022-08-11T17:51:03;39.30;19.00
12426;DHT22;6277;49.824;9.562;2022-08-11T17:53:34;38.80;19.00
12426;DHT22;6277;49.824;9.562;2022-08-11T17:56:20;38.40;19.10
12426;DHT22;6277;49.824;9.562;2022-08-11T17:59:06;37.90;19.30
12426;DHT22;6277;49.824;9.562;2022-08-11T18:01:52;37.40;19.30
12426;DHT22;6277;49.824;9.562;2022-08-11T18:04:20;36.80;19.30
12426;DHT22;6277;49.824;9.562;2022-08-11T18:06:47;36.30;19.50
12426;DHT22;6277;49.824;9.562;2022-08-11T18:09:16;35.90;19.70
12426;DHT22;6277;49.824;9.562;2022-08-11T18:12:02;35.50;19.90
12426;DHT22;6277;49.824;9.562;2022-08-11T18:14:49;35.00;20.00
12426;DHT22;6277;49.824;9.562;2022-08-11T18:17:34;34.60;20.20
12426;DHT22;6277;49.824;9.562;2022-08-11T18:20:20;34.10;20.30
12426;DHT22;6277;49.824;9.562;2022-08-11T18:23:07;33.80;20.30
12426;DHT22;6277;49.824;9.562;2022-08-11T18:25:54;33.40;20.50
12426;DHT22;6277;49.824;9.562;2022-08-11T18:28:45;33.00;20.60
12426;DHT22;6277;49.824;9.562;2022-08-11T18:31:33;32.70;21.00
12426;DHT22;6277;49.824;9.562;2022-08-11T18:34:23;32.40;21.10
12426;DHT22;6277;49.824;9.562;2022-08-11T18:37:13;32.10;21.30
12426;DHT22;6277;49.824;9.562;2022-08-11T18:40:16;31.80;21.30
12426;DHT22;6277;49.824;9.562;2022-08-11T18:43:05;31.50;21.50
12426;DHT22;6277;49.824;9.562;2022-08-11T18:45:52;31.20;22.00
12426;DHT22;6277;49.824;9.562;2022-08-11T18:48:49;31.00;22.00
12426;DHT22;6277;49.824;9.562;2022-08-11T18:51:35;30.70;22.00
12426;DHT22;6277;49.824;9.562;2022-08-11T18:54:22;30.40;22.10
12426;DHT22;6277;49.824;9.562;2022-08-11T18:57:08;30.10;22.40
12426;DHT22;6277;49.824;9.562;2022-08-11T18:59:53;29.80;22.40
12426;DHT22;6277;49.824;9.562;2022-08-11T19:02:38;29.60;22.40
12426;DHT22;6277;49.824;9.562;2022-08-11T19:05:24;29.30;22.60
12426;DHT22;6277;49.824;9.562;2022-08-11T19:08:10;29.10;22.90
12426;DHT22;6277;49.824;9.562;2022-08-11T19:10:55;28.80;23.00
12426;DHT22;6277;49.824;9.562;2022-08-11T19:13:41;28.60;23.00
12426;DHT22;6277;49.824;9.562;2022-08-11T19:16:27;28.30;23.30
12426;DHT22;6277;49.824;9.562;2022-08-11T19:19:13;28.20;23.40
12426;DHT22;6277;49.824;9.562;2022-08-11T19:21:59;27.90;23.60
12426;DHT22;6277;49.824;9.562;2022-08-11T19:24:46;27.80;23.90
12426;DHT22;6277;49.824;9.562;2022-08-11T19:27:31;27.50;23.90
12426;DHT22;6277;49.824;9.562;2022-08-11T19:30:16;27.40;24.10
12426;DHT22;6277;49.824;9.562;2022-08-11T19:33:00;27.20;24.10
12426;DHT22;6277;49.824;9.562;2022-08-11T19:35:44;27.10;23.70
12426;DHT22;6277;49.824;9.562;2022-08-11T19:38:30;27.00;23.60
12426;DHT22;6277;49.824;9.562;2022-08-11T19:41:15;26.80;24.20
12426;DHT22;6277;49.824;9.562;2022-08-11T19:44:03;26.80;24.50
12426;DHT22;6277;49.824;9.562;2022-08-11T19:46:49;26.50;24.80
12426;DHT22;6277;49.824;9.562;2022-08-11T19:49:35;26.50;24.90
12426;DHT22;6277;49.824;9.562;2022-08-11T19:52:20;26.40;25.20
12426;DHT22;6277;49.824;9.562;2022-08-11T19:55:05;26.30;25.20
12426;DHT22;6277;49.824;9.562;2022-08-11T19:57:50;26.20;25.40
12426;DHT22;6277;49.824;9.562;2022-08-11T20:00:36;26.20;25.50